Time;durP1;ratioP1;P1;durP2;ratioP2;P2;SDS_P1;SDS_P2;PMS_P1;PMS_P2;Temp;Humidity;BMP_temperature;BMP_pressure;BME280_temperature;BME280_humidity;BME280_pressure;Samples;Min_cycle;Max_cycle;Signal;HPM_P1;HPM_P2
2023/06/16 00:01:59;;;;;;;;;5.00;4.00;;;;;;;;4953532;28;45492;-91
2023/06/16 00:04:27;;;;;;;;;6.50;5.50;;;;;;;;4958467;28;45321;-91
2023/06/16 00:06:53;;;;;;;;;3.25;3.25;;;;;;;;4959540;28;45606;-89
2023/06/16 00:09:21;;;;;;;;;6.75;4.75;;;;;;;;4959079;28;45402;-90
2023/06/16 00:11:47;;;;;;;;;4.00;4.00;;;;;;;;4958694;28;46469;-90
2023/06/16 00:14:12;;;;;;;;;5.33;4.67;;;;;;;;4951725;28;45330;-90
2023/06/16 00:16:37;;;;;;;;;4.75;4.75;;;;;;;;4959247;28;45325;-90
2023/06/16 00:19:02;;;;;;;;;6.67;6.33;;;;;;;;4940997;28;45347;-90
2023/06/16 00:21:37;;;;;;;;;6.25;6.00;;;;;;;;4958400;28;47107;-90
2023/06/16 00:24:03;;;;;;;;;8.00;6.25;;;;;;;;4959080;28;45773;-90
2023/06/16 00:26:28;;;;;;;;;8.75;5.75;;;;;;;;4958779;28;45262;-90
2023/06/16 00:28:53;;;;;;;;;8.33;6.67;;;;;;;;4959273;28;45296;-92
2023/06/16 00:31:19;;;;;;;;;8.25;8.25;;;;;;;;4959183;28;45781;-91
2023/06/16 00:33:44;;;;;;;;;7.00;6.50;;;;;;;;4959048;28;45288;-91
2023/06/16 00:36:09;;;;;;;;;10.33;7.00;;;;;;;;4941759;28;45328;-91
2023/06/16 00:38:35;;;;;;;;;9.67;7.67;;;;;;;;4942470;28;45281;-91
2023/06/16 00:41:00;;;;;;;;;7.00;5.25;;;;;;;;4941005;28;47278;-91
2023/06/16 00:43:26;;;;;;;;;8.50;6.50;;;;;;;;4958652;28;45269;-92
2023/06/16 00:45:51;;;;;;;;;8.75;6.50;;;;;;;;4958982;28;45820;-91
2023/06/16 00:48:17;;;;;;;;;9.75;7.50;;;;;;;;4958480;28;45410;-92
2023/06/16 00:50:43;;;;;;;;;7.00;6.25;;;;;;;;4957956;28;46526;-87
2023/06/16 00:53:08;;;;;;;;;9.00;7.00;;;;;;;;4941136;28;45597;-89
2023/06/16 00:55:34;;;;;;;;;7.25;7.25;;;;;;;;4941112;28;45492;-90
2023/06/16 00:57:59;;;;;;;;;7.00;7.00;;;;;;;;4958352;28;45340;-90
2023/06/16 01:00:25;;;;;;;;;8.33;5.67;;;;;;;;4941196;28;48053;-90
2023/06/16 01:02:50;;;;;;;;;8.50;7.25;;;;;;;;4957815;28;45418;-90
2023/06/16 01:05:17;;;;;;;;;7.33;6.67;;;;;;;;4941299;28;45427;-90
2023/06/16 01:07:50;;;;;;;;;9.25;7.75;;;;;;;;4958161;28;45562;-90
2023/06/16 01:10:16;;;;;;;;;5.00;4.75;;;;;;;;4940813;28;47071;-90
2023/06/16 01:12:41;;;;;;;;;8.00;4.67;;;;;;;;4940481;28;45968;-90
2023/06/16 01:15:09;;;;;;;;;9.00;4.67;;;;;;;;4957708;28;45397;-90
2023/06/16 01:17:43;;;;;;;;;7.25;5.25;;;;;;;;4957397;28;45372;-89
2023/06/16 01:20:09;;;;;;;;;6.50;5.75;;;;;;;;4957074;28;45508;-89
2023/06/16 01:22:51;;;;;;;;;10.00;6.75;;;;;;;;4957716;28;45623;-90
2023/06/16 01:25:22;;;;;;;;;9.50;7.00;;;;;;;;4957957;28;45449;-89
2023/06/16 01:27:51;;;;;;;;;7.75;6.50;;;;;;;;4957719;28;45514;-90
2023/06/16 01:30:19;;;;;;;;;9.75;5.00;;;;;;;;4958020;28;47136;-90
2023/06/16 01:32:46;;;;;;;;;11.75;7.00;;;;;;;;4957463;28;45392;-89
2023/06/16 01:35:12;;;;;;;;;10.75;7.75;;;;;;;;4957796;28;45411;-89
2023/06/16 01:37:38;;;;;;;;;7.25;7.00;;;;;;;;4957663;28;45467;-89
2023/06/16 01:40:05;;;;;;;;;9.00;5.25;;;;;;;;4940408;28;48214;-89
2023/06/16 01:42:31;;;;;;;;;8.00;6.25;;;;;;;;4940103;28;46118;-90
2023/06/16 01:44:57;;;;;;;;;11.00;7.25;;;;;;;;4940672;28;45327;-90
2023/06/16 01:47:23;;;;;;;;;10.25;6.00;;;;;;;;4957692;28;45241;-92
2023/06/16 01:49:50;;;;;;;;;8.75;7.75;;;;;;;;4940359;28;48245;-90
2023/06/16 01:52:15;;;;;;;;;9.25;6.00;;;;;;;;4957725;28;45279;-90
2023/06/16 01:54:41;;;;;;;;;8.25;7.00;;;;;;;;4957762;28;45565;-89
2023/06/16 01:57:06;;;;;;;;;7.00;7.00;;;;;;;;4957713;28;45218;-89
2023/06/16 01:59:32;;;;;;;;;11.00;9.00;;;;;;;;4957672;28;45547;-89
2023/06/16 02:02:02;;;;;;;;;9.00;7.50;;;;;;;;4940023;28;45544;-89
2023/06/16 02:04:29;;;;;;;;;11.00;10.00;;;;;;;;4940712;28;45301;-89
2023/06/16 02:06:55;;;;;;;;;10.75;7.50;;;;;;;;4957572;28;45458;-89
2023/06/16 02:09:20;;;;;;;;;6.33;5.67;;;;;;;;4939874;28;47518;-90
2023/06/16 02:11:46;;;;;;;;;10.25;8.00;;;;;;;;4940281;28;45707;-88
2023/06/16 02:14:11;;;;;;;;;8.25;6.50;;;;;;;;4940187;28;45324;-90
2023/06/16 02:16:42;;;;;;;;;7.00;5.33;;;;;;;;4939895;28;45433;-92
2023/06/16 02:19:08;;;;;;;;;9.50;6.00;;;;;;;;4957086;28;45647;-90
2023/06/16 02:21:33;;;;;;;;;7.00;5.50;;;;;;;;4940133;28;45302;-90
2023/06/16 02:23:58;;;;;;;;;7.00;7.00;;;;;;;;4940417;28;45263;-90
2023/06/16 02:26:24;;;;;;;;;10.33;8.33;;;;;;;;4939934;28;45501;-89
2023/06/16 02:28:50;;;;;;;;;8.00;8.00;;;;;;;;4956769;28;46625;-89
2023/06/16 02:31:18;;;;;;;;;8.00;7.25;;;;;;;;4956633;28;45771;-89
2023/06/16 02:33:44;;;;;;;;;12.75;9.75;;;;;;;;4939993;28;45411;-88
2023/06/16 02:36:09;;;;;;;;;7.00;7.00;;;;;;;;4957254;28;45297;-89
2023/06/16 02:38:34;;;;;;;;;8.25;6.25;;;;;;;;4956727;28;45642;-90
2023/06/16 02:41:00;;;;;;;;;7.25;6.00;;;;;;;;4956322;28;45494;-89
2023/06/16 02:43:25;;;;;;;;;10.00;9.00;;;;;;;;4956838;28;45413;-89
2023/06/16 02:45:50;;;;;;;;;8.00;5.00;;;;;;;;4960341;28;45464;-88
2023/06/16 02:48:16;;;;;;;;;9.00;7.00;;;;;;;;4959798;28;46333;-86
2023/06/16 02:50:41;;;;;;;;;7.75;6.50;;;;;;;;4959866;28;45372;-88
2023/06/16 02:53:07;;;;;;;;;10.00;7.33;;;;;;;;4942789;28;45537;-87
2023/06/16 02:55:32;;;;;;;;;7.75;6.50;;;;;;;;4959948;28;45555;-88
2023/06/16 02:57:57;;;;;;;;;8.67;6.33;;;;;;;;4941908;28;47278;-88
2023/06/16 03:00:22;;;;;;;;;8.67;6.67;;;;;;;;4960242;28;45468;-88
2023/06/16 03:02:48;;;;;;;;;7.33;7.00;;;;;;;;4959975;28;45213;-87
2023/06/16 03:05:17;;;;;;;;;10.00;7.25;;;;;;;;4960039;28;45628;-88
2023/06/16 03:07:43;;;;;;;;;10.25;5.75;;;;;;;;4959464;28;46359;-89
2023/06/16 03:10:09;;;;;;;;;9.00;6.67;;;;;;;;4959764;28;45422;-88
2023/06/16 03:12:34;;;;;;;;;11.00;8.00;;;;;;;;4959222;28;45431;-87
2023/06/16 03:15:00;;;;;;;;;9.00;9.00;;;;;;;;4959489;28;45403;-88
2023/06/16 03:17:25;;;;;;;;;9.25;8.50;;;;;;;;4959427;28;46103;-87
2023/06/16 03:19:51;;;;;;;;;11.00;7.67;;;;;;;;4959704;28;45449;-89
2023/06/16 03:22:16;;;;;;;;;10.50;6.50;;;;;;;;4959766;28;45517;-88
2023/06/16 03:24:45;;;;;;;;;8.00;6.00;;;;;;;;4958308;28;45345;-88
2023/06/16 03:27:10;;;;;;;;;10.50;7.50;;;;;;;;4955745;28;46230;-88
2023/06/16 03:29:36;;;;;;;;;11.00;7.00;;;;;;;;4941940;28;45455;-89
2023/06/16 03:32:02;;;;;;;;;10.00;6.00;;;;;;;;4959924;28;45470;-90
2023/06/16 03:34:29;;;;;;;;;8.75;7.00;;;;;;;;4942973;28;45399;-89
2023/06/16 03:36:54;;;;;;;;;9.00;6.00;;;;;;;;4959213;28;46292;-89
2023/06/16 03:39:30;;;;;;;;;9.50;6.75;;;;;;;;4941833;28;45517;-92
2023/06/16 03:41:55;;;;;;;;;7.25;5.75;;;;;;;;4942695;28;45384;-89
2023/06/16 03:44:20;;;;;;;;;5.67;5.67;;;;;;;;4941498;28;45447;-88
2023/06/16 03:46:46;;;;;;;;;8.00;5.33;;;;;;;;4936621;28;48073;-89
2023/06/16 03:49:11;;;;;;;;;7.00;5.00;;;;;;;;4954875;28;45382;-89
2023/06/16 03:51:37;;;;;;;;;8.00;5.00;;;;;;;;4955581;28;45656;-89
2023/06/16 03:54:02;;;;;;;;;6.00;4.50;;;;;;;;4956629;28;45464;-89
2023/06/16 03:56:28;;;;;;;;;4.50;2.00;;;;;;;;4954865;28;45558;-90
2023/06/16 03:58:55;;;;;;;;;5.67;5.00;;;;;;;;4956852;28;45423;-89
2023/06/16 04:01:20;;;;;;;;;7.00;5.75;;;;;;;;4959385;28;45285;-89
2023/06/16 04:03:46;;;;;;;;;5.75;5.75;;;;;;;;4959333;28;45645;-87
2023/06/16 04:06:11;;;;;;;;;8.25;6.00;;;;;;;;4959080;28;46352;-89
2023/06/16 04:08:37;;;;;;;;;7.00;5.00;;;;;;;;4942971;28;45907;-88
2023/06/16 04:11:02;;;;;;;;;6.00;4.00;;;;;;;;4960201;28;45335;-90
2023/06/16 04:13:27;;;;;;;;;6.75;6.00;;;;;;;;4961104;28;45426;-90
2023/06/16 04:15:53;;;;;;;;;8.00;5.00;;;;;;;;4943289;28;48037;-89
2023/06/16 04:18:18;;;;;;;;;9.50;7.25;;;;;;;;4958961;28;45330;-88
2023/06/16 04:20:43;;;;;;;;;8.00;6.75;;;;;;;;4959569;28;45497;-88
2023/06/16 04:23:09;;;;;;;;;9.00;6.00;;;;;;;;4941284;28;45323;-89
2023/06/16 04:25:38;;;;;;;;;9.75;7.00;;;;;;;;4940774;28;48240;-88
2023/06/16 04:28:03;;;;;;;;;8.50;5.50;;;;;;;;4958550;28;45261;-89
2023/06/16 04:30:30;;;;;;;;;8.25;6.25;;;;;;;;4941537;28;45448;-89
2023/06/16 04:32:58;;;;;;;;;8.50;5.75;;;;;;;;4958867;28;45272;-89
2023/06/16 04:35:27;;;;;;;;;6.25;6.00;;;;;;;;4958607;28;47150;-89
2023/06/16 04:37:53;;;;;;;;;8.50;8.50;;;;;;;;4958879;28;45297;-90
2023/06/16 04:40:18;;;;;;;;;5.00;5.00;;;;;;;;4958399;28;45498;-90
2023/06/16 04:42:44;;;;;;;;;7.75;5.25;;;;;;;;4942000;28;45299;-90
2023/06/16 04:45:10;;;;;;;;;8.75;6.00;;;;;;;;4941275;28;48191;-88
2023/06/16 04:47:35;;;;;;;;;7.50;6.00;;;;;;;;4941488;28;45683;-90
2023/06/16 04:50:01;;;;;;;;;9.00;6.75;;;;;;;;4958565;28;45471;-89
2023/06/16 04:52:26;;;;;;;;;11.00;8.00;;;;;;;;4958173;28;45188;-90
2023/06/16 04:54:51;;;;;;;;;9.00;8.00;;;;;;;;4957841;28;46298;-89
2023/06/16 04:57:17;;;;;;;;;8.50;6.00;;;;;;;;4940804;28;45952;-88
2023/06/16 04:59:42;;;;;;;;;7.00;7.00;;;;;;;;4941112;28;45506;-88
2023/06/16 05:02:07;;;;;;;;;8.50;7.75;;;;;;;;4958400;28;45610;-89
2023/06/16 05:04:32;;;;;;;;;7.00;6.00;;;;;;;;4940634;28;48016;-88
2023/06/16 05:06:58;;;;;;;;;7.00;5.67;;;;;;;;4957754;28;45419;-90
2023/06/16 05:09:24;;;;;;;;;6.00;6.00;;;;;;;;4957454;28;45399;-87
2023/06/16 05:11:49;;;;;;;;;10.67;6.67;;;;;;;;4940539;28;45511;-88
2023/06/16 05:14:15;;;;;;;;;7.25;6.25;;;;;;;;4957597;28;45742;-87
2023/06/16 05:16:40;;;;;;;;;8.00;6.00;;;;;;;;4940910;28;45428;-89
2023/06/16 05:19:05;;;;;;;;;11.67;7.67;;;;;;;;4957815;28;45494;-89
2023/06/16 05:21:31;;;;;;;;;8.25;7.00;;;;;;;;4940866;28;45502;-90
2023/06/16 05:23:57;;;;;;;;;8.67;8.00;;;;;;;;4957240;28;46159;-89
2023/06/16 05:26:22;;;;;;;;;6.50;4.50;;;;;;;;4958041;28;45291;-89
2023/06/16 05:28:48;;;;;;;;;12.00;7.00;;;;;;;;4958055;28;45206;-90
2023/06/16 05:31:13;;;;;;;;;8.50;8.25;;;;;;;;4958137;28;45430;-90
2023/06/16 05:33:38;;;;;;;;;9.75;7.00;;;;;;;;4941024;28;48141;-90
2023/06/16 05:36:04;;;;;;;;;7.50;7.00;;;;;;;;4958008;28;45292;-88
2023/06/16 05:38:29;;;;;;;;;10.00;9.00;;;;;;;;4939980;28;45665;-89
2023/06/16 05:40:55;;;;;;;;;7.25;7.25;;;;;;;;4940783;28;45561;-90
2023/06/16 05:43:20;;;;;;;;;7.75;6.50;;;;;;;;4957188;28;46178;-88
2023/06/16 05:45:55;;;;;;;;;;;;;;;;;;;;;
2023/06/16 05:48:21;;;;;;;;;10.50;7.50;;;;;;;;4923589;28;68820;-90
2023/06/16 05:50:47;;;;;;;;;7.00;6.00;;;;;;;;4958558;28;45400;-90
2023/06/16 05:53:12;;;;;;;;;7.50;6.00;;;;;;;;4956853;28;45478;-86
2023/06/16 05:55:38;;;;;;;;;10.25;7.25;;;;;;;;4956653;28;45349;-87
2023/06/16 05:58:03;;;;;;;;;9.00;7.00;;;;;;;;4956335;28;45494;-83
2023/06/16 06:00:28;;;;;;;;;9.33;7.33;;;;;;;;4937860;28;45393;-84
2023/06/16 06:02:53;;;;;;;;;10.33;7.33;;;;;;;;4944001;28;47153;-86
2023/06/16 06:05:18;;;;;;;;;11.00;8.00;;;;;;;;4956719;28;45431;-85
2023/06/16 06:07:44;;;;;;;;;10.33;6.67;;;;;;;;4938896;28;45472;-85
2023/06/16 06:10:10;;;;;;;;;11.67;9.00;;;;;;;;4956553;28;45413;-87
2023/06/16 06:12:36;;;;;;;;;9.75;7.00;;;;;;;;4955534;28;46980;-86
2023/06/16 06:15:02;;;;;;;;;9.75;7.00;;;;;;;;4953125;28;45415;-86
2023/06/16 06:17:27;;;;;;;;;6.50;6.50;;;;;;;;4956955;28;45343;-86
2023/06/16 06:19:52;;;;;;;;;9.33;6.00;;;;;;;;4955862;28;45269;-86
2023/06/16 06:22:17;;;;;;;;;8.33;7.00;;;;;;;;4955497;28;45672;-84
2023/06/16 06:24:43;;;;;;;;;8.33;7.00;;;;;;;;4955410;28;45333;-86
2023/06/16 06:27:10;;;;;;;;;7.67;6.00;;;;;;;;4939102;28;45543;-84
2023/06/16 06:29:36;;;;;;;;;11.00;7.00;;;;;;;;4957140;28;45422;-87
2023/06/16 06:32:01;;;;;;;;;11.00;7.00;;;;;;;;4939019;28;47399;-88
2023/06/16 06:34:26;;;;;;;;;7.00;6.00;;;;;;;;4929286;28;45519;-88
2023/06/16 06:37:26;;;;;;;;;;;;;;;;;;;;;
2023/06/16 06:40:22;;;;;;;;;9.00;6.25;;;;;;;;4887299;28;69355;-92
2023/06/16 06:42:50;;;;;;;;;15.25;11.75;;;;;;;;4953981;28;46904;-92
2023/06/16 06:45:16;;;;;;;;;9.75;7.00;;;;;;;;4939694;28;45745;-85
2023/06/16 06:47:41;;;;;;;;;11.00;7.50;;;;;;;;4945310;28;45498;-90
2023/06/16 06:50:06;;;;;;;;;9.75;7.25;;;;;;;;4939540;28;45487;-93
2023/06/16 06:52:40;;;;;;;;;8.75;6.00;;;;;;;;4956660;28;47855;-90
2023/06/16 06:55:06;;;;;;;;;9.75;7.00;;;;;;;;4936744;28;45990;-89
2023/06/16 06:57:33;;;;;;;;;7.25;5.75;;;;;;;;4946891;28;45276;-89
2023/06/16 06:59:59;;;;;;;;;9.00;8.00;;;;;;;;4956632;28;45325;-91
2023/06/16 07:02:31;;;;;;;;;8.75;7.50;;;;;;;;4939372;28;47057;-90
2023/06/16 07:08:26;;;;;;;;;6.25;6.00;;;;;;;;4943016;28;45533;-92
2023/06/16 07:14:41;;;;;;;;;9.00;5.75;;;;;;;;4947267;28;46554;-91
2023/06/16 07:17:32;;;;;;;;;8.75;6.25;;;;;;;;4955927;28;45766;-94
2023/06/16 07:19:58;;;;;;;;;12.25;7.75;;;;;;;;4858187;29;45721;-88
2023/06/16 07:22:28;;;;;;;;;10.33;7.00;;;;;;;;4857732;29;45550;-88
2023/06/16 07:24:57;;;;;;;;;10.50;8.50;;;;;;;;4852394;29;46366;-88
2023/06/16 07:27:22;;;;;;;;;6.50;4.75;;;;;;;;4862249;29;45460;-89
2023/06/16 07:29:52;;;;;;;;;11.00;7.00;;;;;;;;4842056;29;45457;-88
2023/06/16 07:32:17;;;;;;;;;9.50;8.00;;;;;;;;4845641;29;45367;-87
2023/06/16 07:34:44;;;;;;;;;7.50;6.00;;;;;;;;4862981;29;46423;-88
2023/06/16 07:37:13;;;;;;;;;7.00;6.25;;;;;;;;4865003;29;45494;-87
2023/06/16 07:39:52;;;;;;;;;8.00;6.00;;;;;;;;4851900;29;45362;-88
2023/06/16 07:42:20;;;;;;;;;9.25;7.25;;;;;;;;4852977;29;46016;-88
2023/06/16 07:44:48;;;;;;;;;9.00;6.75;;;;;;;;4863526;29;47473;-88
2023/06/16 07:47:13;;;;;;;;;5.25;3.75;;;;;;;;4853510;29;45702;-87
2023/06/16 07:49:41;;;;;;;;;5.67;5.00;;;;;;;;4865103;29;45519;-89
2023/06/16 07:52:09;;;;;;;;;8.25;6.75;;;;;;;;4858013;29;45759;-90
2023/06/16 07:54:34;;;;;;;;;12.25;8.00;;;;;;;;4829834;29;48573;-89
2023/06/16 07:57:00;;;;;;;;;9.50;8.00;;;;;;;;4877428;28;45601;-84
2023/06/16 07:59:26;;;;;;;;;13.00;7.25;;;;;;;;4908936;28;45479;-84
2023/06/16 08:01:51;;;;;;;;;9.25;6.25;;;;;;;;4912756;28;45523;-83
2023/06/16 08:04:17;;;;;;;;;6.33;6.00;;;;;;;;4916879;28;46432;-83
2023/06/16 08:06:42;;;;;;;;;6.00;3.33;;;;;;;;4919048;28;45290;-86
2023/06/16 08:09:07;;;;;;;;;8.00;8.00;;;;;;;;4919163;28;45267;-85
2023/06/16 08:11:33;;;;;;;;;9.25;7.50;;;;;;;;4918634;28;45302;-86
2023/06/16 08:13:58;;;;;;;;;10.25;6.75;;;;;;;;4918956;28;46682;-86
2023/06/16 08:16:23;;;;;;;;;10.67;7.00;;;;;;;;4902291;28;45399;-87
2023/06/16 08:18:50;;;;;;;;;7.67;6.33;;;;;;;;4918522;28;45480;-86
2023/06/16 08:21:15;;;;;;;;;8.50;7.00;;;;;;;;4918790;28;45400;-86
2023/06/16 08:23:40;;;;;;;;;7.67;5.00;;;;;;;;4918478;28;46275;-86
2023/06/16 08:26:06;;;;;;;;;8.00;7.67;;;;;;;;4918779;28;45419;-86
2023/06/16 08:28:31;;;;;;;;;6.33;6.00;;;;;;;;4918632;28;45384;-87
2023/06/16 08:30:56;;;;;;;;;7.33;5.00;;;;;;;;4918820;28;45438;-86
2023/06/16 08:33:21;;;;;;;;;6.00;5.00;;;;;;;;4916714;28;45710;-86
2023/06/16 08:35:47;;;;;;;;;7.25;6.00;;;;;;;;4918687;28;45293;-86
2023/06/16 08:38:12;;;;;;;;;8.00;6.00;;;;;;;;4918585;28;45502;-85
2023/06/16 08:40:37;;;;;;;;;9.00;7.00;;;;;;;;4918487;28;45620;-87
2023/06/16 08:43:04;;;;;;;;;10.25;7.75;;;;;;;;4917614;28;46370;-86
2023/06/16 08:45:30;;;;;;;;;10.50;7.00;;;;;;;;4916777;28;45430;-85
2023/06/16 08:47:55;;;;;;;;;7.50;7.25;;;;;;;;4918163;28;45374;-86
2023/06/16 08:50:22;;;;;;;;;10.67;5.67;;;;;;;;4918303;28;45393;-87
2023/06/16 08:52:48;;;;;;;;;7.00;5.75;;;;;;;;4918352;28;46482;-86
2023/06/16 08:55:14;;;;;;;;;8.25;6.00;;;;;;;;4938212;28;45404;-85
2023/06/16 08:57:46;;;;;;;;;5.50;5.50;;;;;;;;4957085;28;45432;-87
2023/06/16 09:00:13;;;;;;;;;6.50;6.00;;;;;;;;4956707;28;45313;-86
2023/06/16 09:02:39;;;;;;;;;5.75;4.50;;;;;;;;4956089;28;45443;-86
2023/06/16 09:05:04;;;;;;;;;5.00;5.00;;;;;;;;4939352;28;45944;-86
2023/06/16 09:07:30;;;;;;;;;4.25;3.75;;;;;;;;4956683;28;45379;-87
2023/06/16 09:09:55;;;;;;;;;7.00;5.00;;;;;;;;4956937;28;45478;-88
2023/06/16 09:12:21;;;;;;;;;7.50;4.00;;;;;;;;4952828;28;45493;-85
2023/06/16 09:14:49;;;;;;;;;5.50;3.00;;;;;;;;4947675;28;45654;-86
2023/06/16 09:17:17;;;;;;;;;6.25;4.25;;;;;;;;4956547;28;45355;-86
2023/06/16 09:19:47;;;;;;;;;3.50;3.00;;;;;;;;4943249;28;45546;-86
2023/06/16 09:22:13;;;;;;;;;4.75;4.75;;;;;;;;4953448;28;47040;-87
2023/06/16 09:24:38;;;;;;;;;4.50;3.25;;;;;;;;4938890;28;45430;-87
2023/06/16 09:27:03;;;;;;;;;3.67;3.67;;;;;;;;4956680;28;45476;-87
2023/06/16 09:29:29;;;;;;;;;6.25;3.75;;;;;;;;4956115;28;45292;-85
2023/06/16 09:32:06;;;;;;;;;4.00;4.00;;;;;;;;4956257;28;46555;-84
2023/06/16 09:34:32;;;;;;;;;6.25;4.00;;;;;;;;4955863;28;45797;-84
2023/06/16 09:36:57;;;;;;;;;5.00;4.00;;;;;;;;4955955;28;45358;-87
2023/06/16 09:39:23;;;;;;;;;4.67;3.00;;;;;;;;4956165;28;45597;-86
2023/06/16 09:41:49;;;;;;;;;5.00;5.00;;;;;;;;4951913;28;46478;-86
2023/06/16 09:44:15;;;;;;;;;4.75;4.75;;;;;;;;4952922;28;45976;-85
2023/06/16 09:46:40;;;;;;;;;2.75;2.75;;;;;;;;4956070;28;45408;-85
2023/06/16 09:49:06;;;;;;;;;4.00;4.00;;;;;;;;4938296;28;45366;-87
2023/06/16 09:51:31;;;;;;;;;5.00;4.00;;;;;;;;4955414;28;46951;-85
2023/06/16 09:53:57;;;;;;;;;6.50;5.25;;;;;;;;4954629;28;45491;-85
2023/06/16 09:56:22;;;;;;;;;4.75;4.75;;;;;;;;4956019;28;45320;-85
2023/06/16 09:58:47;;;;;;;;;4.25;4.00;;;;;;;;4949769;28;45341;-85
2023/06/16 10:01:16;;;;;;;;;5.75;5.50;;;;;;;;4955668;28;47348;-86
2023/06/16 10:03:43;;;;;;;;;4.00;3.25;;;;;;;;4945654;28;45475;-84
2023/06/16 10:06:19;;;;;;;;;3.50;3.50;;;;;;;;4955919;28;45488;-85
2023/06/16 10:08:46;;;;;;;;;6.00;4.00;;;;;;;;4949720;28;51704;-82
2023/06/16 10:11:13;;;;;;;;;6.00;3.25;;;;;;;;4955187;28;46730;-84
2023/06/16 10:13:40;;;;;;;;;3.00;3.00;;;;;;;;4955371;28;45940;-84
2023/06/16 10:16:11;;;;;;;;;5.25;4.50;;;;;;;;4955944;28;45331;-84
2023/06/16 10:18:37;;;;;;;;;5.25;4.50;;;;;;;;4955283;28;45374;-84
2023/06/16 10:21:03;;;;;;;;;3.75;3.00;;;;;;;;4955865;28;46093;-85
2023/06/16 10:23:28;;;;;;;;;3.75;3.75;;;;;;;;4934603;28;45415;-85
2023/06/16 10:25:54;;;;;;;;;5.25;4.75;;;;;;;;4944328;28;45363;-89
2023/06/16 10:28:19;;;;;;;;;4.50;4.00;;;;;;;;4962642;28;45580;-85
2023/06/16 10:30:48;;;;;;;;;5.00;4.25;;;;;;;;4963853;28;45453;-88
2023/06/16 10:33:19;;;;;;;;;10.00;4.00;;;;;;;;4955489;28;45266;-86
2023/06/16 10:35:52;;;;;;;;;5.00;4.00;;;;;;;;4937809;28;45506;-86
2023/06/16 10:38:17;;;;;;;;;3.75;3.00;;;;;;;;4944233;28;45499;-85
2023/06/16 10:40:44;;;;;;;;;6.25;4.50;;;;;;;;4955230;28;46707;-83
2023/06/16 10:43:22;;;;;;;;;4.50;3.75;;;;;;;;4954582;28;45570;-86
2023/06/16 10:46:31;;;;;;;;;4.25;3.25;;;;;;;;4938725;28;45515;-88
2023/06/16 10:49:15;;;;;;;;;;;;;;;;;;;;;
2023/06/16 10:51:47;;;;;;;;;5.75;4.00;;;;;;;;4932760;28;75531;-85
2023/06/16 10:54:13;;;;;;;;;4.50;4.25;;;;;;;;4943580;28;45964;-85
2023/06/16 10:57:00;;;;;;;;;3.50;3.00;;;;;;;;4975658;28;45263;-87
2023/06/16 11:00:30;;;;;;;;;6.25;3.00;;;;;;;;4976314;28;45479;-89
2023/06/16 11:02:33;;;;;;;;;4.00;4.00;;;;;;;;4914703;28;45320;-88
2023/06/16 11:05:07;;;;;;;;;5.50;4.75;;;;;;;;4916866;28;45862;-88
2023/06/16 11:07:43;;;;;;;;;7.75;5.00;;;;;;;;4909264;28;45554;-92
2023/06/16 11:10:32;;;;;;;;;7.25;5.00;;;;;;;;4884384;28;45540;-90
2023/06/16 11:12:58;;;;;;;;;7.75;4.25;;;;;;;;4902312;28;46143;-85
2023/06/16 11:15:23;;;;;;;;;5.00;3.25;;;;;;;;4918128;28;45750;-85
2023/06/16 11:17:49;;;;;;;;;6.00;3.00;;;;;;;;4908473;28;46477;-86
2023/06/16 11:20:15;;;;;;;;;4.50;3.00;;;;;;;;4900182;28;45549;-86
2023/06/16 11:22:43;;;;;;;;;5.00;5.00;;;;;;;;4908902;28;46308;-88
2023/06/16 11:25:08;;;;;;;;;2.50;2.25;;;;;;;;4905616;28;45511;-86
2023/06/16 11:27:36;;;;;;;;;6.00;3.75;;;;;;;;4909577;28;45524;-89
2023/06/16 11:30:09;;;;;;;;;6.00;4.00;;;;;;;;4912405;28;45615;-90
2023/06/16 11:32:36;;;;;;;;;4.00;4.00;;;;;;;;4907925;28;46874;-86
2023/06/16 11:35:02;;;;;;;;;8.50;5.50;;;;;;;;4911972;28;45800;-86
2023/06/16 11:37:40;;;;;;;;;3.75;3.75;;;;;;;;4912521;28;45483;-86
2023/06/16 11:40:07;;;;;;;;;6.75;3.75;;;;;;;;4941872;28;45500;-86
2023/06/16 11:42:33;;;;;;;;;4.00;4.00;;;;;;;;4954782;28;46265;-85
2023/06/16 11:44:58;;;;;;;;;5.75;4.50;;;;;;;;4957910;28;45733;-87
2023/06/16 11:47:24;;;;;;;;;5.00;3.25;;;;;;;;4951158;28;45469;-91
2023/06/16 11:49:49;;;;;;;;;3.75;3.75;;;;;;;;4924246;28;45526;-89
2023/06/16 11:52:22;;;;;;;;;4.75;4.00;;;;;;;;4932083;28;48368;-90
2023/06/16 11:54:48;;;;;;;;;5.00;3.75;;;;;;;;4950286;28;45738;-87
2023/06/16 11:57:13;;;;;;;;;6.25;4.00;;;;;;;;4947136;28;45646;-85
2023/06/16 11:59:40;;;;;;;;;5.00;4.00;;;;;;;;4933248;28;45489;-86
2023/06/16 12:02:08;;;;;;;;;6.00;4.00;;;;;;;;4951279;28;47421;-89
2023/06/16 12:04:44;;;;;;;;;;;;;;;;;;;;;
2023/06/16 12:07:11;;;;;;;;;4.25;4.00;;;;;;;;4954149;28;68473;-88
2023/06/16 12:09:42;;;;;;;;;4.25;4.00;;;;;;;;4958616;28;45231;-90
2023/06/16 12:12:07;;;;;;;;;5.25;5.00;;;;;;;;4958180;28;45338;-86
2023/06/16 12:14:36;;;;;;;;;7.75;4.00;;;;;;;;4958095;28;45409;-87
2023/06/16 12:17:02;;;;;;;;;6.50;4.25;;;;;;;;4957130;28;45351;-86
2023/06/16 12:19:27;;;;;;;;;4.50;4.00;;;;;;;;4958034;28;45542;-83
2023/06/16 12:21:58;;;;;;;;;3.50;3.50;;;;;;;;4957756;28;47266;-83
2023/06/16 12:24:43;;;;;;;;;;;;;;;;;;;;;
2023/06/16 12:27:23;;;;;;;;;5.00;4.00;;;;;;;;4953805;28;68585;-91
2023/06/16 12:29:54;;;;;;;;;5.00;3.50;;;;;;;;4951510;28;45566;-87
2023/06/16 12:32:46;;;;;;;;;;;;;;;;;;;;;
2023/06/16 12:35:12;;;;;;;;;4.50;4.25;;;;;;;;4890799;28;72128;-86
2023/06/16 12:37:41;;;;;;;;;4.25;2.50;;;;;;;;4949404;28;45506;-87
2023/06/16 12:40:08;;;;;;;;;6.00;2.00;;;;;;;;4955723;28;45623;-85
2023/06/16 12:42:34;;;;;;;;;5.75;4.00;;;;;;;;4956352;28;45699;-87
2023/06/16 12:45:01;;;;;;;;;4.75;4.75;;;;;;;;4956748;28;45625;-86
2023/06/16 12:47:26;;;;;;;;;3.75;3.75;;;;;;;;4957127;28;45463;-86
2023/06/16 12:49:52;;;;;;;;;5.25;4.00;;;;;;;;4957440;28;45488;-85
2023/06/16 12:52:21;;;;;;;;;5.25;3.50;;;;;;;;4956873;28;46406;-86
2023/06/16 12:54:47;;;;;;;;;6.00;3.75;;;;;;;;4956735;28;45354;-85
2023/06/16 12:57:12;;;;;;;;;6.00;4.25;;;;;;;;4957027;28;45455;-89
2023/06/16 12:59:38;;;;;;;;;5.75;3.75;;;;;;;;4956992;28;45417;-87
2023/06/16 13:02:03;;;;;;;;;5.25;3.50;;;;;;;;4945908;28;46708;-88
2023/06/16 13:04:28;;;;;;;;;5.50;3.25;;;;;;;;4948038;28;45524;-85
2023/06/16 13:06:54;;;;;;;;;3.67;3.67;;;;;;;;4949935;28;45473;-85
2023/06/16 13:09:22;;;;;;;;;6.00;5.00;;;;;;;;4945438;28;45431;-85
2023/06/16 13:11:48;;;;;;;;;5.25;3.75;;;;;;;;4950842;28;47045;-85
2023/06/16 13:14:14;;;;;;;;;3.25;2.75;;;;;;;;4950094;28;46023;-86
2023/06/16 13:16:39;;;;;;;;;3.75;3.00;;;;;;;;4956060;28;45325;-85
2023/06/16 13:19:04;;;;;;;;;4.00;4.00;;;;;;;;4956443;28;45475;-86
2023/06/16 13:21:30;;;;;;;;;5.33;3.33;;;;;;;;4953189;28;46504;-86
2023/06/16 13:23:55;;;;;;;;;4.50;4.50;;;;;;;;4948602;28;45522;-86
2023/06/16 13:26:20;;;;;;;;;6.33;4.33;;;;;;;;4956582;28;45746;-85
2023/06/16 13:28:47;;;;;;;;;4.33;4.33;;;;;;;;4955714;28;45484;-84
2023/06/16 13:31:12;;;;;;;;;7.50;6.00;;;;;;;;4955389;28;47371;-86
2023/06/16 13:33:38;;;;;;;;;3.67;3.67;;;;;;;;4956478;28;45352;-85
2023/06/16 13:36:04;;;;;;;;;7.33;4.00;;;;;;;;4955193;28;45553;-85
2023/06/16 13:38:30;;;;;;;;;5.75;3.25;;;;;;;;4955955;28;45538;-85
2023/06/16 13:40:55;;;;;;;;;3.67;3.67;;;;;;;;4948617;28;45571;-85
2023/06/16 13:43:20;;;;;;;;;4.75;4.00;;;;;;;;4948258;28;45680;-84
2023/06/16 13:45:45;;;;;;;;;4.33;4.33;;;;;;;;4950139;28;45421;-83
2023/06/16 13:48:15;;;;;;;;;5.67;5.00;;;;;;;;4947667;28;45437;-85
2023/06/16 13:50:40;;;;;;;;;5.00;3.75;;;;;;;;4950424;28;46093;-84
2023/06/16 13:53:07;;;;;;;;;4.00;3.25;;;;;;;;4956156;28;45544;-84
2023/06/16 13:55:32;;;;;;;;;5.50;5.50;;;;;;;;4955894;28;45450;-82
2023/06/16 13:57:57;;;;;;;;;7.00;5.67;;;;;;;;4957013;28;45529;-82
2023/06/16 14:00:23;;;;;;;;;8.00;5.00;;;;;;;;4954608;28;45677;-86
2023/06/16 14:02:48;;;;;;;;;5.00;3.50;;;;;;;;4955501;28;45301;-83
2023/06/16 14:05:13;;;;;;;;;5.33;4.67;;;;;;;;4955838;28;45397;-82
2023/06/16 14:07:39;;;;;;;;;9.67;4.00;;;;;;;;4948480;28;45377;-84
2023/06/16 14:10:05;;;;;;;;;7.25;3.00;;;;;;;;4938600;28;48007;-83
2023/06/16 14:12:30;;;;;;;;;4.25;3.25;;;;;;;;4955390;28;45837;-84
2023/06/16 14:14:56;;;;;;;;;2.67;2.67;;;;;;;;4955763;28;45469;-84
2023/06/16 14:17:21;;;;;;;;;5.75;4.50;;;;;;;;4951918;28;46828;-84
2023/06/16 14:19:46;;;;;;;;;4.67;4.67;;;;;;;;4953035;28;45698;-84
2023/06/16 14:22:12;;;;;;;;;4.67;3.33;;;;;;;;4955742;28;45367;-84
2023/06/16 14:24:37;;;;;;;;;5.00;5.00;;;;;;;;4955780;28;45371;-84
2023/06/16 14:27:02;;;;;;;;;5.00;3.33;;;;;;;;4955297;28;45446;-82
2023/06/16 14:29:27;;;;;;;;;4.75;4.00;;;;;;;;4955338;28;47091;-83
2023/06/16 14:31:52;;;;;;;;;5.67;4.00;;;;;;;;4955553;28;45716;-83
2023/06/16 14:34:18;;;;;;;;;4.00;4.00;;;;;;;;4955698;28;45300;-84
2023/06/16 14:36:43;;;;;;;;;7.00;4.00;;;;;;;;4938185;28;45478;-83
2023/06/16 14:39:08;;;;;;;;;7.00;4.67;;;;;;;;4954803;28;45448;-82
2023/06/16 14:41:36;;;;;;;;;5.33;3.00;;;;;;;;4958336;28;45637;-85
2023/06/16 14:44:01;;;;;;;;;5.00;4.50;;;;;;;;4952643;28;45712;-83
2023/06/16 14:46:26;;;;;;;;;3.00;3.00;;;;;;;;4958114;28;45503;-84
2023/06/16 14:48:52;;;;;;;;;4.00;3.67;;;;;;;;4958193;28;46122;-82
2023/06/16 14:51:17;;;;;;;;;8.00;5.67;;;;;;;;4937359;28;45768;-83
2023/06/16 14:53:42;;;;;;;;;3.33;3.33;;;;;;;;4951329;28;45316;-84